حائل, Saudi Arabia

07:54 AM AST on أعس×س 26, 2016 (GMT +0300)
Hail | | Change Station

Elev 3330 ft 27.44 °N, 41.69 °E | Updated 54 minutes ago

Clear
صافية
81 °F
Feels Like 81 °F
N
0
ريح متغير ريح from شمال

هذا اليوم
High -- | Low -- °F
--% Chance of Precip.
Yesterday
High -- | Low -- °F
Precip. -- في
الضغط 29.95 في
وضوح الرؤية -9999.0 أميال
سحابات
نقطة الندى 36 °F
الرطوبة 20%
Rainfall 0.00 في
عمق الثلج Not available.
5:49 AM 6:39 PM
الربع الآخر, 38% visible
METAR OEHL 260400Z 00000KT CAVOK 27/02 Q1014 NOSIG
الضغط 29.95 في
وضوح الرؤية -9999.0 أميال
سحابات
نقطة الندى 36 °F
الرطوبة 20%
Rainfall 0.00 في
عمق الثلج Not available.
5:49 AM 6:39 PM
الربع الآخر, 38% visible
METAR OEHL 260400Z 00000KT CAVOK 27/02 Q1014 NOSIG

10-Day Weather Forecast

No radar image for this location.
×

Almanac

علم الفلك

Aug. 26, 2016 Rise Set
Actual Time
Civil Twilight
Nautical Twilight
Astronomical Twilight
قمر
Length Of Visible Light
طول الیوم
Tomorrow will be .
, % of the Moon is Illuminated

Today's Extremes

Country Highs Country Lows

Community

WunderPhotos

Upload Photos

1,935,056 photos uploaded!

WunderBlog® & News

Nearby

جودة الهواء

  جودة الهواء AQ Index Pollutant
Not available.

عمق الثلج

Station Depth Elevation

Earthquake Activity

City Distance Mag. Time & Date
Minimum magnitude displayed is 2.5.

Coastal Water Temperatures

مكان درجات الحرارة

Stations

Nearby Weather Stations

Station Location الحرارة رياح باردة نقطة الندى الرطوبة ريح Precip. Elev تحديث Type